To NAV CANADA Home Page Login to a new session Search on AWWS site Feedback and Comments Disclaimer Vers la page française équivalente Tips FAQ What's new on the site To the Forecasts and Observations / NOTAM section To "File a Flight Plan" website Publications and other links Update of the User's profile FIC Telephone Numbers My Weather Data Folder Route Weather Data Regional Weather Data Local Weather Data To the Forecasts and Observations / NOTAM section
Request Generated 02/24/2017 at 03:39:22 UTC . Weather information available at that time is displayed.

METAR/TAF

HAY RIVER/MERLYN CARTER AIRPORT/NT    

METAR CYHY 240300Z 31005KT 12SM -SN BKN025 M16/M18 A3033 RMK SC7
SLP292=
METAR CYHY 240200Z 31003KT 12SM -SN SCT030 BKN090 M17/M19 A3032 RMK
SC3AS3 SLP290=
SPECI CYHY 240132Z 30003KT 15SM -SN FEW044 BKN096 M17/M19 A3031 RMK
SC1AS6 AC ASOCTD SLP288=
METAR CYHY 240100Z 27003KT 15SM FEW053 BKN096 M17/M19 A3030 RMK
SC2AS5 AC ASOCTD SLP284=

TAF CYHY 232341Z 2400/2412 33008KT P6SM -SN SCT020 BKN040 OVC090
TEMPO 2400/2406 4SM -SN BKN020 OVC040
FM240600 32010KT P6SM SCT020 TEMPO 2406/2412 5SM -SN BKN020
RMK NXT FCST BY 240600Z=
Your time UTC time
Weather data provided by Environment Canada and NAV CANADA